Time;durP1;ratioP1;P1;durP2;ratioP2;P2;SDS_P1;SDS_P2;PMS_P1;PMS_P2;Temp;Humidity;BMP_temperature;BMP_pressure;BME280_temperature;BME280_humidity;BME280_pressure;Samples;Min_cycle;Max_cycle;Signal;HPM_P1;HPM_P2
2021/10/21 00:00:52;;;;;;;;;1.00;0.00;;;;;-147.17;100.00;48741.94;5064708;27;51859;-68
2021/10/21 00:03:18;;;;;;;;;1.00;1.00;;;;;-147.17;100.00;48761.63;5057478;28;51365;-68
2021/10/21 00:05:43;;;;;;;;;0.00;0.00;;;;;-147.17;100.00;48781.28;5063922;27;51146;-69
2021/10/21 00:08:10;;;;;;;;;2.00;2.00;;;;;-147.17;100.00;48769.50;5072539;27;51110;-69
2021/10/21 00:10:35;;;;;;;;;1.00;0.00;;;;;-147.17;99.20;48777.34;5074130;28;52309;-68
2021/10/21 00:13:01;;;;;;;;;1.00;1.00;;;;;-147.17;98.36;48767.53;5074004;27;51039;-68
2021/10/21 00:15:26;;;;;;;;;4.00;1.00;;;;;-147.17;99.55;48777.34;5063560;27;51274;-69
2021/10/21 00:17:52;;;;;;;;;1.00;0.33;;;;;-147.17;99.76;48804.91;5073924;28;51105;-68
2021/10/21 00:20:17;;;;;;;;;1.33;1.00;;;;;-147.17;99.45;48793.09;5074380;27;50983;-68
2021/10/21 00:22:43;;;;;;;;;2.00;1.00;;;;;-147.17;98.92;48795.06;5074364;27;51055;-68
2021/10/21 00:25:09;;;;;;;;;1.00;0.00;;;;;-147.17;99.69;48783.25;5070909;28;51255;-68
2021/10/21 00:27:35;;;;;;;;;0.00;0.00;;;;;-147.17;99.09;48797.03;5074289;27;51008;-68
2021/10/21 00:30:00;;;;;;;;;0.00;0.00;;;;;-147.17;99.67;48763.59;5074073;27;52574;-68
2021/10/21 00:32:25;;;;;;;;;1.00;1.00;;;;;-147.17;98.78;48785.22;5074206;27;51057;-68
2021/10/21 00:34:51;;;;;;;;;3.33;1.00;;;;;-147.17;98.24;48777.34;5073562;27;51221;-68
2021/10/21 00:37:16;;;;;;;;;1.67;1.00;;;;;-147.17;98.68;48769.50;5055100;28;51318;-68
2021/10/21 00:39:42;;;;;;;;;1.00;0.33;;;;;-147.17;99.05;48765.56;5069719;28;52174;-68
2021/10/21 00:42:07;;;;;;;;;0.00;0.00;;;;;-147.17;99.01;48763.59;5074117;27;51097;-68
2021/10/21 00:44:32;;;;;;;;;1.00;1.00;;;;;-147.17;99.92;48767.53;5073195;27;50924;-68
2021/10/21 00:46:58;;;;;;;;;1.00;1.00;;;;;-147.17;99.17;48797.03;5074481;27;51580;-68
2021/10/21 00:49:25;;;;;;;;;1.33;0.67;;;;;-147.17;98.69;48797.03;5072822;28;51928;-68
2021/10/21 00:51:51;;;;;;;;;1.00;0.00;;;;;-147.17;97.81;48812.78;5071044;27;51233;-68
2021/10/21 00:54:18;;;;;;;;;0.00;0.00;;;;;-147.17;97.97;48793.09;5054668;28;51312;-68
2021/10/21 00:56:45;;;;;;;;;0.00;0.00;;;;;-147.17;97.66;48777.34;5073269;27;51025;-68
2021/10/21 00:59:13;;;;;;;;;1.00;0.00;;;;;-147.17;98.00;48808.84;5072615;27;51069;-69
2021/10/21 01:01:38;;;;;;;;;0.00;0.00;;;;;-147.17;97.23;48812.78;5076367;27;50956;-67
2021/10/21 01:04:05;;;;;;;;;2.00;1.00;;;;;-147.17;97.74;48844.25;5057512;28;51165;-69
2021/10/21 01:06:31;;;;;;;;;1.00;0.00;;;;;-147.17;96.72;48779.31;5073735;27;51413;-69
2021/10/21 01:08:57;;;;;;;;;1.00;0.00;;;;;-147.17;97.37;48812.78;5071598;28;52558;-68
2021/10/21 01:11:22;;;;;;;;;1.67;0.00;;;;;-147.17;96.30;48840.31;5073843;27;50936;-67
2021/10/21 01:13:48;;;;;;;;;0.00;0.00;;;;;-147.17;96.76;48836.38;5072783;27;51349;-67
2021/10/21 01:16:15;;;;;;;;;0.67;0.67;;;;;-147.17;96.03;48824.59;5072502;27;51331;-68
2021/10/21 01:18:42;;;;;;;;;0.00;0.00;;;;;-147.17;95.74;48832.47;5072266;27;51300;-68
2021/10/21 01:21:09;;;;;;;;;0.00;0.00;;;;;-147.17;96.15;48834.44;5067365;28;51263;-68
2021/10/21 01:23:36;;;;;;;;;1.67;0.00;;;;;-147.17;96.64;48832.47;5065839;27;51104;-65
2021/10/21 01:26:02;;;;;;;;;0.33;0.00;;;;;-147.17;96.99;48820.66;5064572;28;51373;-66
2021/10/21 01:28:27;;;;;;;;;1.00;1.00;;;;;-147.17;95.12;48867.88;5072376;27;51165;-66
2021/10/21 01:30:53;;;;;;;;;0.00;0.00;;;;;-147.17;95.73;48840.31;5062362;27;51086;-65
2021/10/21 01:33:19;;;;;;;;;0.00;0.00;;;;;-147.17;94.67;48891.50;5073773;27;51187;-66
2021/10/21 01:35:44;;;;;;;;;0.00;0.00;;;;;-147.17;95.73;48838.34;5073468;27;50906;-66
2021/10/21 01:38:10;;;;;;;;;0.00;0.00;;;;;-147.17;96.13;48844.25;5069045;27;51162;-66
2021/10/21 01:40:35;;;;;;;;;0.00;0.00;;;;;-147.17;96.99;48832.47;5059071;27;51022;-66
2021/10/21 01:43:02;;;;;;;;;0.00;0.00;;;;;-147.17;97.21;48861.97;5072988;27;51134;-66
2021/10/21 01:45:29;;;;;;;;;0.00;0.00;;;;;-147.17;96.64;48826.56;5069735;28;51339;-66
2021/10/21 01:47:56;;;;;;;;;0.00;0.00;;;;;-147.17;94.65;48883.63;5070275;28;51983;-65
2021/10/21 01:50:22;;;;;;;;;0.00;0.00;;;;;-147.17;94.76;48883.63;5070267;27;51138;-67
2021/10/21 01:52:50;;;;;;;;;0.00;0.00;;;;;-147.17;95.22;48867.88;5071765;27;51320;-66
2021/10/21 01:55:16;;;;;;;;;0.00;0.00;;;;;-147.17;95.88;48856.06;5071691;27;51111;-67
2021/10/21 01:57:42;;;;;;;;;0.00;0.00;;;;;-147.17;95.94;48865.91;5066214;28;52454;-66
2021/10/21 02:00:10;;;;;;;;;0.00;0.00;;;;;-147.17;95.02;48863.94;5073942;28;50983;-66
2021/10/21 02:02:36;;;;;;;;;0.00;0.00;;;;;-147.17;95.12;48883.63;5074317;27;51201;-66
2021/10/21 02:05:02;;;;;;;;;0.00;0.00;;;;;-147.17;94.28;48869.84;5072140;27;51070;-66
2021/10/21 02:07:27;;;;;;;;;0.00;0.00;;;;;-147.17;92.81;48930.84;5070915;28;54263;-66
2021/10/21 02:09:53;;;;;;;;;0.00;0.00;;;;;-147.17;91.70;48895.44;5071849;27;51060;-66
2021/10/21 02:12:20;;;;;;;;;0.00;0.00;;;;;-147.17;92.03;48919.03;5072930;27;50937;-66
2021/10/21 02:14:45;;;;;;;;;0.00;0.00;;;;;-147.17;91.23;48938.72;5071720;27;51004;-65
2021/10/21 02:17:11;;;;;;;;;0.00;0.00;;;;;-147.17;91.26;48940.69;5071394;27;51790;-66
2021/10/21 02:19:36;;;;;;;;;0.00;0.00;;;;;-147.17;91.53;48982.00;5071723;27;51041;-66
2021/10/21 02:22:03;;;;;;;;;0.00;0.00;;;;;-147.17;92.03;48946.59;5058764;27;51086;-65
2021/10/21 02:24:29;;;;;;;;;0.00;0.00;;;;;-147.17;92.21;48913.13;5071389;28;50950;-64
2021/10/21 02:26:55;;;;;;;;;0.67;0.67;;;;;-147.17;91.68;48950.53;5071305;27;52212;-65
2021/10/21 02:29:20;;;;;;;;;0.00;0.00;;;;;-147.17;91.98;48962.34;5070880;28;51134;-65
2021/10/21 02:31:46;;;;;;;;;0.00;0.00;;;;;-147.17;92.05;48966.28;5071885;27;51057;-65
2021/10/21 02:34:11;;;;;;;;;0.00;0.00;;;;;-147.17;92.25;48970.19;5058289;28;51282;-64
2021/10/21 02:36:36;;;;;;;;;0.00;0.00;;;;;-147.17;92.86;48950.53;5073393;27;50978;-64
2021/10/21 02:39:02;;;;;;;;;0.00;0.00;;;;;-147.17;93.07;48952.50;5061686;27;51025;-64
2021/10/21 02:41:27;;;;;;;;;0.00;0.00;;;;;-147.17;92.78;48948.56;5064679;28;50946;-64
2021/10/21 02:43:53;;;;;;;;;0.67;0.67;;;;;-147.17;93.21;48972.16;5073698;27;51374;-64
2021/10/21 02:46:19;;;;;;;;;6.33;6.33;;;;;-147.17;93.18;48952.50;5071719;27;51594;-63
2021/10/21 02:48:44;;;;;;;;;0.00;0.00;;;;;-147.17;93.76;48958.41;5073157;27;51012;-64
2021/10/21 02:51:09;;;;;;;;;0.00;0.00;;;;;-147.17;93.51;49001.69;5072822;27;51192;-64
2021/10/21 02:53:35;;;;;;;;;1.00;0.00;;;;;-147.17;92.94;48954.47;5072572;27;51450;-64
2021/10/21 02:56:00;;;;;;;;;0.00;0.00;;;;;-147.17;93.36;48958.41;5069283;27;51166;-64
2021/10/21 02:58:26;;;;;;;;;0.00;0.00;;;;;-147.17;93.78;48962.34;5070671;28;51122;-64
2021/10/21 03:00:51;;;;;;;;;0.00;0.00;;;;;-147.17;93.83;48962.34;5053936;28;51435;-64
2021/10/21 03:03:16;;;;;;;;;0.00;0.00;;;;;-147.17;97.67;48976.09;5071469;27;51315;-64
2021/10/21 03:05:42;;;;;;;;;1.00;1.00;;;;;-147.17;96.23;48950.53;5071307;27;51010;-64
2021/10/21 03:08:07;;;;;;;;;0.00;0.00;;;;;-147.17;95.08;48980.03;5072150;27;51029;-65
2021/10/21 03:10:32;;;;;;;;;0.00;0.00;;;;;-147.17;93.60;48989.88;5066006;27;51036;-64
2021/10/21 03:12:58;;;;;;;;;0.00;0.00;;;;;-147.17;93.88;48983.97;5062871;28;51297;-64
2021/10/21 03:15:25;;;;;;;;;0.00;0.00;;;;;-147.17;93.98;48982.00;5070560;27;51165;-64
2021/10/21 03:17:51;;;;;;;;;0.00;0.00;;;;;-147.17;93.75;48978.06;5071811;27;51058;-64
2021/10/21 03:20:16;;;;;;;;;0.00;0.00;;;;;-147.17;93.35;49015.47;5069502;27;51601;-64
2021/10/21 03:22:42;;;;;;;;;0.00;0.00;;;;;-147.17;92.00;48997.75;5072472;28;51154;-64
2021/10/21 03:25:09;;;;;;;;;0.00;0.00;;;;;-147.17;92.53;49013.50;5070789;27;51762;-65
2021/10/21 03:27:36;;;;;;;;;0.00;0.00;;;;;-147.17;92.74;48999.72;5071406;27;51043;-64
2021/10/21 03:30:08;;;;;;;;;1.33;0.00;;;;;-147.17;92.74;48999.72;5070924;28;51114;-64
2021/10/21 03:32:34;;;;;;;;;0.00;0.00;;;;;-147.17;92.87;48989.88;5069928;28;51158;-64
2021/10/21 03:34:59;;;;;;;;;0.00;0.00;;;;;-147.17;93.78;49001.69;5070567;27;51164;-64
2021/10/21 03:37:26;;;;;;;;;0.00;0.00;;;;;-147.17;94.56;49013.50;5071822;27;51126;-64
2021/10/21 03:39:51;;;;;;;;;0.00;0.00;;;;;-147.17;94.64;48978.06;5069008;27;51110;-64
2021/10/21 03:42:18;;;;;;;;;0.00;0.00;;;;;-147.17;94.32;48997.75;5063960;28;51382;-63
2021/10/21 03:44:43;;;;;;;;;0.00;0.00;;;;;-147.17;93.61;49029.25;5071549;27;51150;-64
2021/10/21 03:47:09;;;;;;;;;1.00;0.00;;;;;-147.17;93.50;49013.50;5075272;27;50975;-63
2021/10/21 03:49:35;;;;;;;;;0.00;0.00;;;;;-147.17;92.23;49021.38;5072891;27;51160;-64
2021/10/21 03:52:01;;;;;;;;;0.00;0.00;;;;;-147.17;91.92;49084.34;5074617;27;51311;-64
2021/10/21 03:54:26;;;;;;;;;0.00;0.00;;;;;-147.17;93.08;49017.44;5072973;27;51107;-64
2021/10/21 03:56:52;;;;;;;;;0.00;0.00;;;;;-147.17;93.76;49041.03;5075232;27;51367;-64
2021/10/21 03:59:17;;;;;;;;;0.67;0.00;;;;;-147.17;93.41;49056.78;5074201;27;51061;-64
2021/10/21 04:01:42;;;;;;;;;0.00;0.00;;;;;-147.17;93.31;49052.84;5074341;27;51372;-64
2021/10/21 04:04:08;;;;;;;;;0.00;0.00;;;;;-147.17;93.81;49068.59;5073053;27;51879;-64
2021/10/21 04:06:33;;;;;;;;;0.00;0.00;;;;;-147.17;93.69;49076.47;5073829;27;51132;-64
2021/10/21 04:08:58;;;;;;;;;0.00;0.00;;;;;-147.17;93.39;49068.59;5075445;27;51432;-65
2021/10/21 04:11:24;;;;;;;;;0.00;0.00;;;;;-147.17;94.08;49088.28;5074824;28;51379;-64
2021/10/21 04:13:50;;;;;;;;;0.00;0.00;;;;;-147.17;94.51;49072.53;5074059;28;52051;-64
2021/10/21 04:16:15;;;;;;;;;0.00;0.00;;;;;-147.17;94.96;49041.03;5075363;27;51060;-64
2021/10/21 04:18:41;;;;;;;;;0.00;0.00;;;;;-147.17;95.41;49088.28;5072671;27;51484;-64
2021/10/21 04:21:06;;;;;;;;;0.00;0.00;;;;;-147.17;96.26;49064.66;5077069;27;51248;-64
2021/10/21 04:23:31;;;;;;;;;0.00;0.00;;;;;-147.17;96.10;49096.16;5072892;27;51406;-63
2021/10/21 04:25:57;;;;;;;;;0.33;0.00;;;;;-147.17;96.37;49066.63;5075085;27;51003;-64
2021/10/21 04:28:22;;;;;;;;;1.33;0.00;;;;;-147.17;95.84;49090.25;5072297;27;51362;-64
2021/10/21 04:30:48;;;;;;;;;0.00;0.00;;;;;-147.17;95.32;49072.53;5074082;27;51185;-65
2021/10/21 04:33:13;;;;;;;;;0.00;0.00;;;;;-147.17;95.31;49052.84;5074574;27;53076;-65
2021/10/21 04:35:38;;;;;;;;;0.00;0.00;;;;;-147.17;95.87;49060.72;5072972;28;51045;-65
2021/10/21 04:38:05;;;;;;;;;0.00;0.00;;;;;-147.17;95.80;49066.63;5073874;27;51256;-64
2021/10/21 04:40:31;;;;;;;;;1.33;0.00;;;;;-147.17;96.32;49060.72;5070928;27;51311;-64
2021/10/21 04:42:56;;;;;;;;;0.00;0.00;;;;;-147.17;96.31;49088.28;5064499;28;51639;-65
2021/10/21 04:45:21;;;;;;;;;0.67;0.00;;;;;-147.17;96.84;49064.66;5073282;27;51149;-64
2021/10/21 04:47:48;;;;;;;;;1.67;1.00;;;;;-147.17;97.13;49064.66;5074397;27;50963;-64
2021/10/21 04:50:13;;;;;;;;;1.00;1.00;;;;;-147.17;97.62;49094.19;5074143;28;51368;-64
2021/10/21 04:52:40;;;;;;;;;0.00;0.00;;;;;-147.17;97.85;49060.72;5074284;27;50957;-64
2021/10/21 04:55:08;;;;;;;;;0.33;0.00;;;;;-147.17;97.94;49064.66;5073341;28;51004;-64
2021/10/21 04:57:33;;;;;;;;;1.00;1.00;;;;;-147.17;98.49;49088.28;5070818;27;51267;-64
2021/10/21 04:59:58;;;;;;;;;1.00;0.00;;;;;-147.17;98.55;49088.28;5071779;27;51082;-64
2021/10/21 05:02:24;;;;;;;;;0.00;0.00;;;;;-147.17;98.74;49092.22;5071729;28;53000;-64
2021/10/21 05:04:49;;;;;;;;;0.33;0.00;;;;;-147.17;98.79;49100.09;5072997;27;50976;-64
2021/10/21 05:07:15;;;;;;;;;1.00;1.00;;;;;-147.17;99.32;49129.59;5073940;27;51379;-64
2021/10/21 05:09:40;;;;;;;;;0.00;0.00;;;;;-147.17;99.79;49088.28;5074509;27;51047;-65
2021/10/21 05:12:05;;;;;;;;;2.00;1.00;;;;;-147.17;99.71;49096.16;5073971;27;51487;-65
2021/10/21 05:14:31;;;;;;;;;0.00;0.00;;;;;-147.17;99.62;49084.34;5071872;28;51042;-65
2021/10/21 05:16:57;;;;;;;;;2.33;1.00;;;;;-147.17;99.33;49111.91;5073819;27;50869;-65
2021/10/21 05:19:22;;;;;;;;;1.00;0.33;;;;;-147.17;99.10;49121.72;5073443;28;51150;-65
2021/10/21 05:21:48;;;;;;;;;0.00;0.00;;;;;-147.17;98.69;49107.97;5073243;27;51449;-65
2021/10/21 05:24:13;;;;;;;;;0.33;0.00;;;;;-147.17;99.11;49106.00;5073546;27;51011;-65
2021/10/21 05:26:38;;;;;;;;;1.00;0.00;;;;;-147.17;99.11;49135.50;5073328;27;51133;-65
2021/10/21 05:29:04;;;;;;;;;1.00;1.00;;;;;-147.17;99.17;49135.50;5072717;27;51396;-65
2021/10/21 05:31:29;;;;;;;;;1.00;1.00;;;;;-147.17;99.31;49106.00;5072768;27;51052;-65
2021/10/21 05:33:54;;;;;;;;;1.00;0.33;;;;;-147.17;99.60;49115.81;5073343;27;51341;-65
2021/10/21 05:36:20;;;;;;;;;0.00;0.00;;;;;-147.17;99.68;49088.28;5066646;27;51025;-65
2021/10/21 05:38:46;;;;;;;;;2.00;2.00;;;;;-147.17;99.63;49115.81;5070606;28;51469;-65
2021/10/21 05:41:12;;;;;;;;;1.00;1.00;;;;;-147.17;99.94;49123.69;5071027;28;52671;-65
2021/10/21 05:43:37;;;;;;;;;1.00;1.00;;;;;-147.17;99.69;49064.66;5066837;27;51106;-65
2021/10/21 05:46:03;;;;;;;;;1.00;1.00;;;;;-147.17;99.44;49094.19;5070602;27;51640;-65
2021/10/21 05:48:28;;;;;;;;;1.00;1.00;;;;;-147.17;99.36;49068.59;5064705;28;51124;-65
2021/10/21 05:50:54;;;;;;;;;2.67;0.67;;;;;-147.17;98.72;49056.78;5071130;27;51304;-65
2021/10/21 05:53:19;;;;;;;;;0.00;0.00;;;;;-147.17;98.74;49084.34;5073455;27;51445;-65
2021/10/21 05:55:45;;;;;;;;;1.00;0.33;;;;;-147.17;98.43;49104.03;5055099;28;51160;-65
2021/10/21 05:58:12;;;;;;;;;1.00;1.00;;;;;-147.17;98.55;49068.59;5072967;27;51059;-65
2021/10/21 06:00:38;;;;;;;;;0.00;0.00;;;;;-147.17;99.05;49104.03;5072172;27;51131;-65
2021/10/21 06:03:03;;;;;;;;;3.00;2.00;;;;;-147.17;99.36;49104.03;5072271;27;51102;-65
2021/10/21 06:05:29;;;;;;;;;0.00;0.00;;;;;-147.17;99.71;49060.72;5071770;27;51149;-65
2021/10/21 06:07:56;;;;;;;;;2.00;1.00;;;;;-147.17;100.00;49070.56;5064723;27;51103;-64
2021/10/21 06:10:21;;;;;;;;;3.00;1.00;;;;;-147.17;100.00;49092.22;5072023;27;51191;-65
2021/10/21 06:12:50;;;;;;;;;2.00;2.00;;;;;-147.17;100.00;49076.47;5072557;27;51252;-65
2021/10/21 06:15:17;;;;;;;;;1.67;1.00;;;;;-147.17;100.00;49086.31;5072031;27;51038;-65
2021/10/21 06:17:43;;;;;;;;;1.00;1.00;;;;;-147.17;100.00;49139.44;5071502;27;51088;-65
2021/10/21 06:20:13;;;;;;;;;2.00;1.00;;;;;-147.17;100.00;49135.50;5071486;28;51240;-64
2021/10/21 06:22:39;;;;;;;;;2.00;1.67;;;;;-147.17;100.00;49102.06;5066274;28;51066;-65
2021/10/21 06:25:09;;;;;;;;;1.67;1.67;;;;;-147.17;100.00;49121.72;5059525;27;51164;-66
2021/10/21 06:27:35;;;;;;;;;2.67;2.00;;;;;-147.17;100.00;49088.28;5071249;27;51324;-66
2021/10/21 06:30:00;;;;;;;;;3.00;2.00;;;;;-147.17;100.00;49056.78;5067601;27;51278;-64
2021/10/21 06:32:26;;;;;;;;;3.67;2.00;;;;;-147.17;100.00;49086.31;5070208;28;50967;-55
2021/10/21 06:34:53;;;;;;;;;2.00;1.00;;;;;-147.17;100.00;49096.16;5069407;27;51172;-55
2021/10/21 06:37:18;;;;;;;;;3.00;2.00;;;;;-147.17;100.00;49080.41;5069543;27;51212;-55
2021/10/21 06:39:45;;;;;;;;;2.67;2.00;;;;;-147.17;100.00;49080.41;5067048;27;52305;-53
2021/10/21 06:42:10;;;;;;;;;1.00;1.00;;;;;-147.17;100.00;49058.75;5065883;27;50942;-56
2021/10/21 06:44:36;;;;;;;;;1.00;1.00;;;;;-147.17;100.00;49107.97;5063376;27;51718;-55
2021/10/21 06:47:02;;;;;;;;;1.67;1.67;;;;;-147.17;100.00;49076.47;5071101;27;51189;-54
2021/10/21 06:49:30;;;;;;;;;4.33;2.00;;;;;-147.17;100.00;49052.84;5065339;28;51146;-55
2021/10/21 06:51:55;;;;;;;;;5.00;4.00;;;;;-147.17;100.00;49058.75;5068900;28;51087;-54
2021/10/21 06:54:20;;;;;;;;;3.00;2.33;;;;;-147.17;100.00;49084.34;5066514;27;51311;-52
2021/10/21 06:56:46;;;;;;;;;2.00;2.00;;;;;-147.17;100.00;49066.63;5067499;27;51308;-55
2021/10/21 06:59:11;;;;;;;;;2.00;1.33;;;;;-147.17;100.00;49046.94;5066320;27;51987;-57
2021/10/21 07:01:36;;;;;;;;;5.00;4.00;;;;;-147.17;100.00;49054.81;5065718;28;51193;-56
2021/10/21 07:04:03;;;;;;;;;4.33;2.33;;;;;-147.17;100.00;49013.50;5066865;27;52359;-58
2021/10/21 07:06:29;;;;;;;;;4.00;2.00;;;;;-147.17;100.00;49037.13;5065940;28;51209;-58
2021/10/21 07:08:55;;;;;;;;;1.00;1.00;;;;;-147.17;100.00;49029.25;5058002;28;52088;-56
2021/10/21 07:11:21;;;;;;;;;0.33;0.33;;;;;-147.17;100.00;49035.16;5065413;28;51382;-55
2021/10/21 07:13:46;;;;;;;;;2.00;1.33;;;;;-147.17;100.00;49064.66;5068839;27;51445;-56
2021/10/21 07:16:12;;;;;;;;;8.33;6.33;;;;;-147.17;100.00;49013.50;5060375;27;51259;-55
2021/10/21 07:18:38;;;;;;;;;2.00;1.00;;;;;-147.17;100.00;49037.13;5068588;27;51967;-57
2021/10/21 07:21:03;;;;;;;;;2.33;2.00;;;;;-147.17;100.00;49029.25;5071611;27;51146;-54
2021/10/21 07:23:29;;;;;;;;;4.00;2.33;;;;;-147.17;100.00;49015.47;5072975;27;51314;-55
2021/10/21 07:25:54;;;;;;;;;2.00;2.00;;;;;-147.17;100.00;49060.72;5074464;27;50936;-54
2021/10/21 07:28:22;;;;;;;;;2.67;2.67;;;;;-147.17;100.00;49003.66;5074734;27;52114;-54
2021/10/21 07:30:52;;;;;;;;;3.33;2.67;;;;;-147.17;100.00;49037.13;5074982;27;51219;-54
2021/10/21 07:33:17;;;;;;;;;4.33;4.00;;;;;-147.17;100.00;49025.31;5074323;27;51016;-55
2021/10/21 07:35:43;;;;;;;;;4.67;3.00;;;;;-147.17;100.00;48978.06;5076146;27;51006;-55
2021/10/21 07:38:08;;;;;;;;;1.00;1.00;;;;;-147.17;100.00;48987.91;5075011;27;51904;-55
2021/10/21 07:40:33;;;;;;;;;2.00;1.67;;;;;-147.17;100.00;48966.28;5074963;27;51155;-54
2021/10/21 07:42:59;;;;;;;;;2.00;1.67;;;;;-147.17;100.00;48989.88;5071662;27;50912;-55
2021/10/21 07:45:24;;;;;;;;;3.67;2.00;;;;;-147.17;100.00;48954.47;5063458;28;51361;-54
2021/10/21 07:47:50;;;;;;;;;3.00;2.00;;;;;-147.17;100.00;48948.56;5073938;27;51486;-56
2021/10/21 07:50:17;;;;;;;;;3.00;2.00;;;;;-147.17;100.00;48885.59;5073277;27;50998;-56
2021/10/21 07:52:45;;;;;;;;;3.00;1.33;;;;;-147.17;100.00;48800.97;5074627;27;51157;-57
2021/10/21 07:55:10;;;;;;;;;4.00;2.00;;;;;-147.17;100.00;48745.88;5074992;27;50905;-55
2021/10/21 07:57:36;;;;;;;;;3.00;3.00;;;;;-147.17;95.49;48714.38;5074377;27;50920;-55
2021/10/21 08:00:04;;;;;;;;;3.00;2.00;;;;;-147.17;92.08;48641.59;5074718;28;51117;-56
2021/10/21 08:02:29;;;;;;;;;3.00;2.67;;;;;-147.17;91.90;48580.59;5074475;28;50892;-55
2021/10/21 08:04:55;;;;;;;;;3.67;3.00;;;;;-147.17;91.31;48470.41;5074587;27;51330;-55
2021/10/21 08:07:21;;;;;;;;;2.67;1.00;;;;;-147.17;87.54;48442.84;5074015;27;51947;-55
2021/10/21 08:09:46;;;;;;;;;4.00;4.00;;;;;-147.17;86.61;48391.69;5072619;27;51021;-56
2021/10/21 08:12:11;;;;;;;;;4.33;3.00;;;;;-147.17;83.42;48381.84;5074316;27;51120;-56
2021/10/21 08:14:37;;;;;;;;;2.67;2.67;;;;;-147.17;82.88;48250.03;5073258;27;51130;-53
2021/10/21 08:17:03;;;;;;;;;3.00;3.00;;;;;-147.17;82.08;48179.19;5070144;28;51957;-56
2021/10/21 08:19:29;;;;;;;;;3.00;2.00;;;;;-147.17;77.52;48289.38;5073131;28;51156;-54
2021/10/21 08:21:55;;;;;;;;;3.00;3.00;;;;;-147.17;76.24;48309.06;5074063;27;51237;-55
2021/10/21 08:24:22;;;;;;;;;24.50;22.25;;;;;-147.17;74.51;48393.66;5073481;27;51414;-58
2021/10/21 08:26:49;;;;;;;;;2.67;2.00;;;;;-147.17;72.42;48588.47;5067185;27;51070;-53
2021/10/21 08:29:14;;;;;;;;;2.00;2.00;;;;;-147.17;72.09;48604.19;5072095;28;51002;-52
2021/10/21 08:31:40;;;;;;;;;4.33;2.00;;;;;-147.17;72.94;48440.88;5068846;27;51148;-54
2021/10/21 08:34:05;;;;;;;;;2.33;2.00;;;;;-147.17;73.23;48375.94;5074005;27;51433;-54
2021/10/21 08:36:31;;;;;;;;;1.67;1.33;;;;;-147.17;70.30;48558.94;5073688;27;50992;-54
2021/10/21 08:38:56;;;;;;;;;3.33;3.00;;;;;-147.17;70.98;48372.03;5073412;27;51143;-53
2021/10/21 08:41:23;;;;;;;;;1.33;1.33;;;;;-147.17;71.29;48352.34;5073753;27;51189;-53
2021/10/21 08:43:49;;;;;;;;;2.00;2.00;;;;;-147.17;68.92;48584.53;5069776;27;51518;-53
2021/10/21 08:46:21;;;;;;;;;2.00;2.00;;;;;-147.17;68.90;48570.75;5063370;28;51140;-51
2021/10/21 08:48:50;;;;;;;;;3.67;2.67;;;;;-147.17;67.42;48671.09;5071283;28;51080;-51
2021/10/21 08:51:16;;;;;;;;;4.67;3.00;;;;;-147.17;68.59;48497.94;5073254;28;51106;-54
2021/10/21 08:53:41;;;;;;;;;2.00;2.00;;;;;-147.17;67.95;48576.66;5073557;28;51184;-54
2021/10/21 08:56:06;;;;;;;;;1.67;1.67;;;;;-147.17;67.32;48600.25;5073246;27;51418;-52
2021/10/21 08:58:33;;;;;;;;;3.00;2.00;;;;;-147.17;65.53;48891.50;5073034;27;50987;-53
2021/10/21 09:04:13;;;;;;;;;1.67;1.67;;;;;-147.17;64.68;49021.38;5071495;28;50963;-53
2021/10/21 09:09:18;;;;;;;;;1.33;1.33;;;;;-147.17;63.45;49285.06;5072619;28;51125;-53
2021/10/21 09:11:43;;;;;;;;;0.33;0.00;;;;;-147.17;64.12;49092.22;5074973;27;51047;-54
2021/10/21 09:14:11;;;;;;;;;2.33;1.33;;;;;-147.17;61.17;49645.25;5073840;27;51153;-54
2021/10/21 09:16:41;;;;;;;;;1.67;1.67;;;;;-147.17;60.33;49840.09;5073521;27;51782;-50
2021/10/21 09:19:10;;;;;;;;;5.33;4.67;;;;;-147.17;62.13;49468.09;5073402;27;50963;-54
2021/10/21 09:21:38;;;;;;;;;2.67;1.00;;;;;-147.17;61.34;49629.50;5073684;27;51038;-53
2021/10/21 09:24:22;;;;;;;;;1.00;0.00;;;;;-147.17;55.98;50631.44;5073263;27;51062;-53
2021/10/21 09:27:00;;;;;;;;;1.33;1.33;;;;;-147.17;57.16;50407.00;5072971;27;52333;-53
2021/10/21 09:29:26;;;;;;;;;32.00;29.00;;;;;-147.17;56.92;50379.44;5060585;28;51118;-52
2021/10/21 09:32:09;;;;;;;;;2.00;2.00;;;;;-147.17;57.86;50273.16;5073067;27;51082;-51
2021/10/21 09:34:58;;;;;;;;;1.33;1.00;;;;;-147.17;56.01;50558.59;5073602;28;51191;-53
2021/10/21 09:37:35;;;;;;;;;0.67;0.67;;;;;-147.17;55.80;50560.56;5073306;27;51006;-54
2021/10/21 09:40:12;;;;;;;;;1.00;1.00;;;;;-147.17;53.14;50873.59;5073173;27;50932;-55
2021/10/21 09:42:42;;;;;;;;;2.00;2.00;;;;;-147.17;55.50;50633.41;5055527;28;50971;-54
2021/10/21 09:45:16;;;;;;;;;8.67;8.00;;;;;-147.17;56.56;50517.25;5063483;27;53230;-52
2021/10/21 09:47:48;;;;;;;;;1.00;0.00;;;;;-147.17;57.41;50517.25;5067820;28;51089;-53
2021/10/21 09:50:37;;;;;;;;;1.00;1.00;;;;;-147.17;53.94;50867.69;5072674;27;50948;-53
2021/10/21 09:53:22;;;;;;;;;4.33;4.00;;;;;-147.17;55.46;50753.50;5072611;27;50987;-55
2021/10/21 09:55:54;;;;;;;;;0.67;0.67;;;;;-147.17;52.49;51050.78;5073241;27;51406;-51
2021/10/21 09:58:22;;;;;;;;;3.33;0.67;;;;;-147.17;55.17;50822.41;5072813;27;53180;-52
2021/10/21 10:00:49;;;;;;;;;3.00;1.00;;;;;-147.17;54.82;50871.63;5072572;28;51094;-51
2021/10/21 10:03:16;;;;;;;;;2.00;0.33;;;;;-147.17;53.24;51021.25;5072777;27;51095;-54
2021/10/21 10:05:43;;;;;;;;;1.00;0.00;;;;;-147.17;54.02;50911.00;5071314;27;51355;-53
2021/10/21 10:08:09;;;;;;;;;1.33;1.33;;;;;-147.17;55.33;50952.34;5072421;28;53148;-53
2021/10/21 10:10:40;;;;;;;;;3.00;1.67;;;;;-147.17;50.53;51206.34;5072373;27;51041;-52
2021/10/21 10:13:07;;;;;;;;;2.00;2.00;;;;;-147.17;52.62;51088.19;5072741;27;50852;-52
2021/10/21 10:15:34;;;;;;;;;1.33;1.00;;;;;-147.17;53.39;51035.03;5072126;27;51368;-54
2021/10/21 10:18:00;;;;;;;;;1.67;1.33;;;;;-147.17;51.73;51168.91;5071715;27;51966;-54
2021/10/21 10:20:27;;;;;;;;;3.00;3.00;;;;;-147.17;52.48;51149.22;5072167;27;51271;-52
2021/10/21 10:22:53;;;;;;;;;5.67;4.33;;;;;-147.17;54.31;51062.59;5068551;27;50979;-53
2021/10/21 10:25:21;;;;;;;;;3.00;3.00;;;;;-147.17;51.75;51182.72;5062170;28;51326;-50
2021/10/21 10:28:01;;;;;;;;;2.00;2.00;;;;;-147.17;53.21;51037.00;5070348;28;52389;-53
2021/10/21 10:30:53;;;;;;;;;2.33;1.00;;;;;-147.17;54.37;50987.78;5071937;27;51130;-53
2021/10/21 10:33:42;;;;;;;;;3.33;2.00;;;;;-147.17;55.54;50954.31;5066120;28;51212;-52
2021/10/21 10:36:26;;;;;;;;;1.33;1.33;;;;;-147.17;56.29;50867.69;5067483;27;51010;-55
2021/10/21 10:38:54;;;;;;;;;2.00;2.00;;;;;-147.17;57.57;50849.97;5067096;28;51806;-52
2021/10/21 10:41:41;;;;;;;;;2.33;2.00;;;;;-147.17;59.02;50755.47;5072143;27;51121;-53
2021/10/21 10:44:07;;;;;;;;;2.00;2.00;;;;;-147.17;60.17;50702.31;5072178;27;51093;-53
2021/10/21 10:47:02;;;;;;;;;2.00;2.00;;;;;-147.17;61.71;50635.38;5073457;27;51257;-51
2021/10/21 10:49:40;;;;;;;;;2.67;2.00;;;;;-147.17;62.97;50601.91;5066674;28;52828;-53
2021/10/21 10:52:12;;;;;;;;;4.00;3.00;;;;;-147.17;65.17;50481.81;5071703;27;51244;-54
2021/10/21 10:54:47;;;;;;;;;2.00;2.00;;;;;-147.17;67.38;50349.91;5069642;28;50897;-52
2021/10/21 10:57:24;;;;;;;;;3.00;3.00;;;;;-147.17;69.37;50210.16;5072590;28;51262;-53
2021/10/21 10:59:51;;;;;;;;;3.00;3.00;;;;;-147.17;71.45;50125.50;5071494;28;51847;-53
2021/10/21 11:02:22;;;;;;;;;4.67;4.00;;;;;-147.17;73.58;49946.38;5072050;27;51108;-53
2021/10/21 11:04:57;;;;;;;;;3.33;3.33;;;;;-147.17;74.01;49966.06;5072019;27;51044;-53
2021/10/21 11:07:39;;;;;;;;;4.33;4.00;;;;;-147.17;75.04;49895.22;5072258;27;50910;-52
2021/10/21 11:10:19;;;;;;;;;5.67;4.67;;;;;-147.17;77.16;49769.25;5071828;27;51446;-54
2021/10/21 11:12:46;;;;;;;;;4.00;3.67;;;;;-147.17;77.29;49757.44;5071659;27;51208;-54
2021/10/21 11:15:29;;;;;;;;;3.00;2.33;;;;;-147.17;77.64;49773.19;5071995;28;51093;-54
2021/10/21 11:17:59;;;;;;;;;6.00;4.67;;;;;-147.17;79.02;49680.66;5072184;27;51433;-53
2021/10/21 11:20:36;;;;;;;;;6.00;5.00;;;;;-147.17;78.70;49716.09;5070681;28;52129;-53
2021/10/21 11:23:04;;;;;;;;;3.67;3.00;;;;;-147.17;80.21;49649.19;5071460;28;51033;-53